createdAt,value
2022-12-15T00:00:15.675Z,56.40
2022-12-15T00:03:01.365Z,55.17
2022-12-15T00:05:49.878Z,52.67
2022-12-15T00:08:36.532Z,54.30
2022-12-15T00:11:22.887Z,55.00
2022-12-15T00:14:08.381Z,47.90
2022-12-15T00:16:54.150Z,52.90
2022-12-15T00:19:39.736Z,54.27
2022-12-15T00:22:25.686Z,58.47
2022-12-15T00:25:11.125Z,44.30
2022-12-15T00:27:56.317Z,48.33
2022-12-15T00:30:41.882Z,51.67
2022-12-15T00:33:30.172Z,57.50
2022-12-15T00:36:18.627Z,50.33
2022-12-15T00:38:47.870Z,51.47
2022-12-15T00:41:19.344Z,53.17
2022-12-15T00:43:47.310Z,49.17
2022-12-15T00:46:33.356Z,48.90
2022-12-15T00:49:01.256Z,45.57
2022-12-15T00:51:47.615Z,54.70
2022-12-15T00:54:33.252Z,48.30
2022-12-15T00:57:18.728Z,42.80
2022-12-15T01:00:04.121Z,47.13
2022-12-15T01:02:49.931Z,47.87
2022-12-15T01:05:35.694Z,47.13
2022-12-15T01:08:21.175Z,47.70
2022-12-15T01:11:06.504Z,49.77
2022-12-15T01:13:51.665Z,43.77
2022-12-15T01:16:37.472Z,42.97
2022-12-15T01:19:23.330Z,53.00
2022-12-15T01:21:50.266Z,41.10
2022-12-15T01:24:17.561Z,45.37
2022-12-15T01:26:44.491Z,45.03
2022-12-15T01:29:11.546Z,45.37
2022-12-15T01:31:38.551Z,45.03
2022-12-15T01:34:05.636Z,46.63
2022-12-15T01:36:32.551Z,44.57
2022-12-15T01:38:59.512Z,41.77
2022-12-15T01:41:26.581Z,39.17
2022-12-15T01:43:54.117Z,43.73
2022-12-15T01:46:23.587Z,41.13
2022-12-15T01:49:29.302Z,41.10
2022-12-15T01:52:00.902Z,38.57
2022-12-15T01:54:39.546Z,39.90
2022-12-15T01:57:21.982Z,39.90
2022-12-15T01:59:54.862Z,39.37
2022-12-15T02:02:26.350Z,44.23
2022-12-15T02:04:57.216Z,42.60
2022-12-15T02:07:24.772Z,43.73
2022-12-15T02:09:56.090Z,35.17
2022-12-15T02:12:53.917Z,39.80
2022-12-15T02:15:39.062Z,45.23
2022-12-15T02:18:46.537Z,41.47
2022-12-15T02:22:06.918Z,43.53
2022-12-15T02:25:11.976Z,35.30
2022-12-15T02:28:11.283Z,37.53
2022-12-15T02:31:18.421Z,43.90
2022-12-15T02:34:04.412Z,40.03
2022-12-15T02:36:39.874Z,38.73
2022-12-15T02:39:07.091Z,41.23
2022-12-15T02:41:47.847Z,41.37
2022-12-15T02:44:26.669Z,38.73
2022-12-15T02:47:14.576Z,37.70
2022-12-15T02:50:12.131Z,42.00
2022-12-15T02:53:04.089Z,41.10
2022-12-15T02:56:01.483Z,43.83
2022-12-15T02:59:13.718Z,40.40
2022-12-15T03:02:03.124Z,39.67
2022-12-15T03:04:34.021Z,36.20
2022-12-15T03:07:06.176Z,44.40
2022-12-15T03:09:34.080Z,39.80
2022-12-15T03:12:01.060Z,38.60
2022-12-15T03:14:28.507Z,41.87
2022-12-15T03:16:56.273Z,42.60
2022-12-15T03:19:23.597Z,42.57
2022-12-15T03:21:50.584Z,38.17
2022-12-15T03:24:17.548Z,44.67
2022-12-15T03:26:44.538Z,42.40
2022-12-15T03:29:11.524Z,43.70
2022-12-15T03:31:38.478Z,35.83
2022-12-15T03:34:05.501Z,46.67
2022-12-15T03:36:32.446Z,39.60
2022-12-15T03:38:59.487Z,43.93
2022-12-15T03:41:26.429Z,38.10
2022-12-15T03:43:53.372Z,44.83
2022-12-15T03:46:20.449Z,46.13
2022-12-15T03:48:47.387Z,41.97
2022-12-15T03:51:14.366Z,41.93
2022-12-15T03:53:41.358Z,37.70
2022-12-15T03:56:08.911Z,39.17
2022-12-15T03:58:35.778Z,42.23
2022-12-15T04:01:33.920Z,44.93
2022-12-15T04:04:03.705Z,39.93
2022-12-15T04:06:31.699Z,40.30
2022-12-15T04:08:59.029Z,47.60
2022-12-15T04:11:26.062Z,42.97
2022-12-15T04:13:53.052Z,46.75
2022-12-15T04:16:20.678Z,41.37
2022-12-15T04:19:11.319Z,47.97
2022-12-15T04:21:38.317Z,54.80
2022-12-15T04:24:24.669Z,45.73
2022-12-15T04:27:10.148Z,44.70
2022-12-15T04:29:55.521Z,44.80
2022-12-15T04:32:41.142Z,45.13
2022-12-15T04:35:27.598Z,42.27
2022-12-15T04:38:13.512Z,40.97
2022-12-15T04:40:59.342Z,46.67
2022-12-15T04:43:45.062Z,48.83
2022-12-15T04:46:30.890Z,46.60
2022-12-15T04:49:16.504Z,49.57
2022-12-15T04:52:01.841Z,47.97
2022-12-15T04:54:47.137Z,49.07
2022-12-15T04:57:33.045Z,44.57
2022-12-15T05:00:18.841Z,47.87
2022-12-15T05:03:04.184Z,43.13
2022-12-15T05:05:50.021Z,48.33
2022-12-15T05:08:35.372Z,47.30
2022-12-15T05:11:20.814Z,52.67
2022-12-15T05:14:06.216Z,48.23
2022-12-15T05:16:51.664Z,53.67
2022-12-15T05:19:37.424Z,51.70
2022-12-15T05:22:22.679Z,45.30
2022-12-15T05:25:08.391Z,48.60
2022-12-15T05:27:54.006Z,47.43
2022-12-15T05:30:39.347Z,41.27
2022-12-15T05:33:06.505Z,45.23
2022-12-15T05:35:33.471Z,46.17
2022-12-15T05:38:00.388Z,43.53
2022-12-15T05:40:27.392Z,44.20
2022-12-15T05:42:59.266Z,41.63
2022-12-15T05:45:27.721Z,46.27
2022-12-15T05:47:55.840Z,46.03
2022-12-15T05:50:23.864Z,45.80
2022-12-15T05:52:51.226Z,46.37
2022-12-15T05:55:19.645Z,46.37
2022-12-15T05:57:54.273Z,43.20
2022-12-15T06:00:22.447Z,47.67
2022-12-15T06:02:50.041Z,43.90
2022-12-15T06:05:17.717Z,49.17
2022-12-15T06:07:44.850Z,46.03
2022-12-15T06:10:13.342Z,47.67
2022-12-15T06:12:40.262Z,47.10
2022-12-15T06:15:08.092Z,47.47
2022-12-15T06:17:34.955Z,55.30
2022-12-15T06:20:02.648Z,44.37
2022-12-15T06:22:30.041Z,45.23
2022-12-15T06:24:56.975Z,44.73
2022-12-15T06:27:23.863Z,42.47
2022-12-15T06:29:50.811Z,48.40
2022-12-15T06:32:18.083Z,50.23
2022-12-15T06:34:45.001Z,56.70
2022-12-15T06:37:12.987Z,49.17
2022-12-15T06:39:40.393Z,53.67
2022-12-15T06:42:07.376Z,54.10
2022-12-15T06:44:34.344Z,58.17
2022-12-15T06:47:01.327Z,47.73
2022-12-15T06:49:28.321Z,54.93
2022-12-15T06:51:55.200Z,50.07
2022-12-15T06:54:22.211Z,53.60
2022-12-15T06:56:50.051Z,52.87
2022-12-15T06:59:17.291Z,50.17
2022-12-15T07:01:44.463Z,57.47
2022-12-15T07:04:12.037Z,55.57
2022-12-15T07:06:40.350Z,51.33
2022-12-15T07:09:13.885Z,50.27
2022-12-15T07:11:40.925Z,58.53
2022-12-15T07:14:07.899Z,51.87
2022-12-15T07:16:35.093Z,57.07
2022-12-15T07:19:02.643Z,54.97
2022-12-15T07:21:29.635Z,54.47
2022-12-15T07:23:58.245Z,59.90
2022-12-15T07:26:26.649Z,60.67
2022-12-15T07:28:54.514Z,54.70
2022-12-15T07:31:23.534Z,54.43
2022-12-15T07:33:52.912Z,51.87
2022-12-15T07:36:20.937Z,57.27
2022-12-15T07:38:50.753Z,57.70
2022-12-15T07:41:20.956Z,49.57
2022-12-15T07:43:48.985Z,62.97
2022-12-15T07:46:17.683Z,57.50
2022-12-15T07:48:50.427Z,59.33
2022-12-15T07:51:20.852Z,55.60
2022-12-15T07:53:50.662Z,48.83
2022-12-15T07:56:20.058Z,57.27
2022-12-15T07:58:47.687Z,52.23
2022-12-15T08:01:16.002Z,52.37
2022-12-15T08:03:43.657Z,56.47
2022-12-15T08:06:13.715Z,52.87
2022-12-15T08:08:41.938Z,60.20
2022-12-15T08:11:12.182Z,50.03
2022-12-15T08:16:27.686Z,53.40
2022-12-15T08:18:57.296Z,49.97
2022-12-15T08:21:24.875Z,51.20
2022-12-15T08:23:51.925Z,56.97
2022-12-15T08:26:20.064Z,62.57
2022-12-15T08:28:49.831Z,51.07
2022-12-15T08:31:23.265Z,63.87
2022-12-15T08:33:51.490Z,50.70
2022-12-15T08:36:20.712Z,53.00
2022-12-15T08:38:48.245Z,52.43
2022-12-15T08:41:23.546Z,55.67
2022-12-15T08:43:52.242Z,49.40
2022-12-15T08:46:26.309Z,49.93
2022-12-15T08:48:53.396Z,50.40
2022-12-15T08:51:22.490Z,49.47
2022-12-15T08:53:49.861Z,54.03
2022-12-15T08:56:20.502Z,49.13
2022-12-15T08:58:49.480Z,53.37
2022-12-15T09:01:23.609Z,47.10
2022-12-15T09:03:54.023Z,51.47
2022-12-15T09:06:27.814Z,47.97
2022-12-15T09:08:56.864Z,52.57
2022-12-15T09:11:25.794Z,42.13
2022-12-15T09:13:52.853Z,47.67
2022-12-15T09:16:21.343Z,48.03
2022-12-15T09:18:54.998Z,46.93
2022-12-15T09:21:26.440Z,48.20
2022-12-15T09:23:58.159Z,48.10
2022-12-15T09:26:25.096Z,41.63
2022-12-15T09:28:54.927Z,52.20
2022-12-15T09:31:29.624Z,44.37
2022-12-15T09:34:01.051Z,49.13
2022-12-15T09:36:30.585Z,52.03
2022-12-15T09:38:57.588Z,46.10
2022-12-15T09:41:28.648Z,43.53
2022-12-15T09:44:14.347Z,43.23
2022-12-15T09:47:09.013Z,51.57
2022-12-15T09:50:03.890Z,48.77
2022-12-15T09:52:48.587Z,49.00
2022-12-15T09:55:24.180Z,53.77
2022-12-15T09:58:07.489Z,50.47
2022-12-15T10:00:52.202Z,52.80
2022-12-15T10:03:38.966Z,55.40
2022-12-15T10:06:32.730Z,49.77
2022-12-15T10:09:22.724Z,54.90
2022-12-15T10:12:06.060Z,53.60
2022-12-15T10:14:46.711Z,46.57
2022-12-15T10:17:51.862Z,51.93
2022-12-15T10:20:24.166Z,48.60
2022-12-15T10:22:51.609Z,60.90
2022-12-15T10:25:30.383Z,43.93
2022-12-15T10:28:14.078Z,51.47
2022-12-15T10:30:52.305Z,48.57
2022-12-15T10:33:24.522Z,48.07
2022-12-15T10:35:54.869Z,47.90
2022-12-15T10:38:33.756Z,50.77
2022-12-15T10:41:07.764Z,53.60
2022-12-15T10:43:44.566Z,49.80
2022-12-15T10:46:24.721Z,55.97
2022-12-15T10:49:11.870Z,55.93
2022-12-15T10:52:03.291Z,47.77
2022-12-15T10:54:37.331Z,62.23
2022-12-15T10:57:23.630Z,56.40
2022-12-15T10:59:51.190Z,48.93
2022-12-15T11:02:24.255Z,60.30
2022-12-15T11:05:17.039Z,62.93
2022-12-15T11:07:56.763Z,51.50
2022-12-15T11:10:52.869Z,51.93
2022-12-15T11:13:23.288Z,49.83
2022-12-15T11:15:53.421Z,53.97
2022-12-15T11:18:38.947Z,47.37
2022-12-15T11:21:25.742Z,54.93
2022-12-15T11:24:09.685Z,55.43
2022-12-15T11:26:49.240Z,54.80
2022-12-15T11:29:31.081Z,52.53
2022-12-15T11:32:03.213Z,61.53
2022-12-15T11:34:43.058Z,67.37
2022-12-15T11:37:43.906Z,54.47
2022-12-15T11:40:22.578Z,61.10
2022-12-15T11:42:52.261Z,55.87
2022-12-15T11:45:34.611Z,54.67
2022-12-15T11:48:04.561Z,55.77
2022-12-15T11:51:08.706Z,56.00
2022-12-15T11:54:16.837Z,61.87
2022-12-15T11:57:02.717Z,73.73
2022-12-15T12:00:12.623Z,55.10
2022-12-15T12:03:26.049Z,56.27
2022-12-15T12:06:20.819Z,60.93
2022-12-15T12:08:59.601Z,57.57
2022-12-15T12:11:59.498Z,63.93
2022-12-15T12:14:36.466Z,62.57
2022-12-15T12:17:22.018Z,63.10
2022-12-15T12:19:58.017Z,56.37
2022-12-15T12:22:42.092Z,61.57
2022-12-15T12:25:26.411Z,62.57
2022-12-15T13:28:57.283Z,77.30
2022-12-15T13:31:31.317Z,77.93
2022-12-15T13:34:14.735Z,78.13
2022-12-15T13:36:41.618Z,75.77
2022-12-15T13:39:12.555Z,78.10
2022-12-15T13:42:07.595Z,79.97
2022-12-15T15:06:01.994Z,66.37
2022-12-15T15:08:37.379Z,87.70
2022-12-15T15:11:35.373Z,79.00
2022-12-15T15:14:15.324Z,76.20
2022-12-15T15:16:43.717Z,67.63
2022-12-15T15:19:23.669Z,65.70
2022-12-15T15:21:51.101Z,70.43
2022-12-15T15:24:18.117Z,70.27
2022-12-15T15:26:45.171Z,59.80
2022-12-15T15:29:41.208Z,101.27
2022-12-15T15:32:22.173Z,82.57
2022-12-15T15:34:49.939Z,80.17
2022-12-15T15:37:25.299Z,66.23
2022-12-15T15:39:54.893Z,86.70
2022-12-15T15:42:26.575Z,79.10
2022-12-15T15:44:58.514Z,72.23
2022-12-15T15:47:26.323Z,65.30
2022-12-15T15:49:55.205Z,60.37
2022-12-15T15:52:23.367Z,66.47
2022-12-15T15:54:51.969Z,58.00
2022-12-15T15:57:19.749Z,65.20
2022-12-15T15:59:47.928Z,62.73
2022-12-15T16:02:15.414Z,68.03
2022-12-15T16:04:44.150Z,61.93
2022-12-15T16:07:29.443Z,59.40
2022-12-15T16:09:57.450Z,65.33
2022-12-15T16:12:34.084Z,66.53
2022-12-15T16:15:01.001Z,52.90
2022-12-15T16:17:27.995Z,59.67
2022-12-15T16:19:54.944Z,61.77
2022-12-15T16:22:22.893Z,65.57
2022-12-15T16:24:49.903Z,61.97
2022-12-15T16:27:17.057Z,67.80
2022-12-15T16:29:44.653Z,98.90
2022-12-15T16:32:13.488Z,57.77
2022-12-15T16:34:42.018Z,73.57
2022-12-15T16:37:26.965Z,56.10
2022-12-15T16:39:53.986Z,55.40
2022-12-15T16:42:20.963Z,61.50
2022-12-15T16:44:47.914Z,54.80
2022-12-15T16:47:14.859Z,45.83
2022-12-15T16:49:41.853Z,49.80
2022-12-15T16:52:20.681Z,66.80
2022-12-15T16:54:49.389Z,48.00
2022-12-15T16:57:17.141Z,61.37
2022-12-15T16:59:44.040Z,58.43
2022-12-15T17:02:27.571Z,64.43
2022-12-15T17:04:55.753Z,43.87
2022-12-15T17:07:26.554Z,57.97
2022-12-15T17:09:53.706Z,64.63
2022-12-15T17:12:20.764Z,68.03
2022-12-15T17:14:47.773Z,65.77
2022-12-15T17:17:17.857Z,66.60
2022-12-15T17:20:04.988Z,48.33
2022-12-15T17:22:33.552Z,67.93
2022-12-15T17:25:00.577Z,66.50
2022-12-15T17:27:29.663Z,62.50
2022-12-15T17:29:59.325Z,72.57
2022-12-15T17:32:26.926Z,74.30
2022-12-15T17:34:53.971Z,73.00
2022-12-15T17:37:21.076Z,65.87
2022-12-15T17:39:51.551Z,58.47
2022-12-15T17:42:21.282Z,68.80
2022-12-15T17:44:51.773Z,62.27
2022-12-15T17:47:19.050Z,71.90
2022-12-15T17:49:47.393Z,60.40
2022-12-15T17:52:34.694Z,61.47
2022-12-15T17:55:03.839Z,72.20
2022-12-15T17:57:33.411Z,66.90
2022-12-15T18:00:02.109Z,66.73
2022-12-15T18:02:37.400Z,73.23
2022-12-15T18:05:05.171Z,77.70
2022-12-15T18:07:32.241Z,69.43
2022-12-15T18:09:59.301Z,68.90
2022-12-15T18:12:27.839Z,62.67
2022-12-15T18:14:56.392Z,82.27
2022-12-15T18:17:24.423Z,72.50
2022-12-15T18:19:51.426Z,74.27
2022-12-15T18:22:24.426Z,80.83
2022-12-15T18:24:53.852Z,79.13
2022-12-15T18:27:29.505Z,79.43
2022-12-15T18:29:56.883Z,69.97
2022-12-15T18:32:26.483Z,59.60
2022-12-15T18:34:54.647Z,60.73
2022-12-15T18:37:25.192Z,80.73
2022-12-15T18:39:52.924Z,72.17
2022-12-15T18:42:21.630Z,51.40
2022-12-15T18:44:51.866Z,79.73
2022-12-15T18:47:22.643Z,64.70
2022-12-15T18:49:49.783Z,74.90
2022-12-15T18:52:23.719Z,81.87
2022-12-15T18:54:53.513Z,55.87
2022-12-15T18:57:36.108Z,61.00
2022-12-15T19:00:24.676Z,62.47
2022-12-15T19:02:54.386Z,65.07
2022-12-15T19:05:28.741Z,55.83
2022-12-15T19:08:03.841Z,77.27
2022-12-15T19:10:34.581Z,68.03
2022-12-15T19:13:01.499Z,85.30
2022-12-15T19:15:29.196Z,72.70
2022-12-15T19:18:15.057Z,67.20
2022-12-15T19:21:01.422Z,85.57
2022-12-15T19:23:28.359Z,79.03
2022-12-15T19:25:55.601Z,89.40
2022-12-15T19:28:24.008Z,69.77
2022-12-15T19:30:52.182Z,62.53
2022-12-15T19:33:20.335Z,76.80
2022-12-15T19:35:51.554Z,72.93
2022-12-15T19:38:31.909Z,49.13
2022-12-15T19:40:59.825Z,73.80
2022-12-15T19:43:27.621Z,67.63
2022-12-15T19:45:54.787Z,70.63
2022-12-15T19:48:24.025Z,61.17
2022-12-15T19:50:52.403Z,75.13
2022-12-15T19:53:28.637Z,61.17
2022-12-15T19:56:01.773Z,68.43
2022-12-15T19:58:31.923Z,74.67
2022-12-15T20:01:06.696Z,60.27
2022-12-15T20:03:35.703Z,75.50
2022-12-15T20:06:20.644Z,53.57
2022-12-15T20:08:53.543Z,82.87
2022-12-15T20:11:40.114Z,63.93
2022-12-15T20:14:13.903Z,60.60
2022-12-15T20:16:41.338Z,70.60
2022-12-15T20:19:08.488Z,72.77
2022-12-15T20:21:40.704Z,48.13
2022-12-15T20:24:17.223Z,79.83
2022-12-15T20:26:45.235Z,65.13
2022-12-15T20:29:33.076Z,71.00
2022-12-15T20:32:00.867Z,75.37
2022-12-15T20:34:28.105Z,66.87
2022-12-15T20:36:55.254Z,80.77
2022-12-15T20:39:27.777Z,53.03
2022-12-15T20:41:55.870Z,68.37
2022-12-15T20:44:24.337Z,58.10
2022-12-15T20:46:51.713Z,75.30
2022-12-15T20:49:23.433Z,62.93
2022-12-15T20:51:51.055Z,50.17
2022-12-15T20:54:21.724Z,84.87
2022-12-15T20:56:50.169Z,91.67
2022-12-15T20:59:18.189Z,87.83
2022-12-15T21:01:45.435Z,82.50
2022-12-15T21:04:25.016Z,72.30
2022-12-15T21:06:55.081Z,80.87
2022-12-15T21:09:23.677Z,73.77
2022-12-15T21:11:51.995Z,61.77
2022-12-15T21:14:24.020Z,71.87
2022-12-15T21:16:51.166Z,59.00
2022-12-15T21:19:21.380Z,64.73
2022-12-15T21:24:40.324Z,75.63
2022-12-15T21:27:17.027Z,66.03
2022-12-15T21:29:52.018Z,53.67
2022-12-15T21:32:20.733Z,64.60
2022-12-15T21:34:47.922Z,61.73
2022-12-15T21:37:31.531Z,66.40
2022-12-15T21:39:59.703Z,68.13
2022-12-15T21:42:27.541Z,72.93
2022-12-15T21:44:54.572Z,69.63
2022-12-15T21:50:39.455Z,76.07
2022-12-15T21:53:07.440Z,59.13
2022-12-15T21:55:34.778Z,66.47
2022-12-15T21:58:02.110Z,52.17
2022-12-15T22:00:29.081Z,76.43
2022-12-15T22:02:56.105Z,66.65
2022-12-15T22:05:30.447Z,61.83
2022-12-15T22:08:13.788Z,77.27
2022-12-15T22:10:40.911Z,73.00
2022-12-15T22:13:14.264Z,78.23
2022-12-15T22:15:41.486Z,87.73
2022-12-15T22:18:19.537Z,57.73
2022-12-15T22:20:49.041Z,70.60
2022-12-15T22:23:20.649Z,76.90
2022-12-15T22:25:52.290Z,79.50
2022-12-15T22:28:24.726Z,84.60
2022-12-15T22:30:54.044Z,62.80
2022-12-15T22:33:27.556Z,77.73
2022-12-15T22:35:56.266Z,59.97
2022-12-15T22:38:24.660Z,53.13
2022-12-15T22:40:55.627Z,86.37
2022-12-15T22:43:31.875Z,58.30
2022-12-15T22:46:00.903Z,58.43
2022-12-15T22:48:37.201Z,65.97
2022-12-15T22:51:06.546Z,60.27
2022-12-15T22:53:36.431Z,61.40
2022-12-15T22:56:11.516Z,69.10
2022-12-15T22:58:44.020Z,56.67
2022-12-15T23:01:11.934Z,76.87
2022-12-15T23:03:39.221Z,65.33
2022-12-15T23:06:06.510Z,68.00
2022-12-15T23:08:33.532Z,68.53
2022-12-15T23:11:19.413Z,82.50
2022-12-15T23:13:46.430Z,66.90
2022-12-15T23:16:19.516Z,70.60
2022-12-15T23:18:54.960Z,52.23
2022-12-15T23:21:25.155Z,67.87
2022-12-15T23:23:52.996Z,63.33
2022-12-15T23:26:26.214Z,68.43
2022-12-15T23:28:55.094Z,47.93
2022-12-15T23:31:22.856Z,61.57
2022-12-15T23:33:52.205Z,66.80
2022-12-15T23:36:19.854Z,63.53
2022-12-15T23:38:46.888Z,66.43
2022-12-15T23:41:18.225Z,60.47
2022-12-15T23:43:45.315Z,55.90
2022-12-15T23:46:12.954Z,68.67
2022-12-15T23:48:43.270Z,70.50
2022-12-15T23:51:15.552Z,52.87
2022-12-15T23:53:44.521Z,61.80
2022-12-15T23:56:16.911Z,47.80
2022-12-15T23:58:45.761Z,51.63
